createdAt,value
2018-07-03T00:00:06.018Z,5.50
2018-07-03T00:02:35.236Z,4.30
2018-07-03T00:05:04.389Z,8.13
2018-07-03T00:07:33.556Z,4.93
2018-07-03T00:10:02.484Z,3.77
2018-07-03T00:12:31.274Z,2.20
2018-07-03T00:15:00.116Z,7.50
2018-07-03T00:17:29.084Z,11.43
2018-07-03T00:19:58.139Z,2.90
2018-07-03T00:22:27.049Z,3.03
2018-07-03T00:24:55.972Z,2.40
2018-07-03T00:27:24.777Z,3.23
2018-07-03T00:30:00.209Z,3.60
2018-07-03T00:32:29.076Z,1.33
2018-07-03T00:34:57.911Z,3.80
2018-07-03T00:37:26.849Z,3.30
2018-07-03T00:39:55.764Z,3.63
2018-07-03T00:42:24.583Z,3.07
2018-07-03T00:44:53.451Z,3.40
2018-07-03T00:47:22.272Z,1.13
2018-07-03T00:49:51.169Z,3.87
2018-07-03T00:52:20.084Z,1.30
2018-07-03T00:54:48.956Z,2.53
2018-07-03T00:57:17.808Z,1.83
2018-07-03T00:59:57.982Z,7.03
2018-07-03T01:02:26.796Z,1.40
2018-07-03T01:04:55.658Z,2.23
2018-07-03T01:07:24.474Z,1.10
2018-07-03T01:09:53.450Z,2.40
2018-07-03T01:12:22.286Z,1.10
2018-07-03T01:14:51.195Z,2.00
2018-07-03T01:17:20.123Z,4.73
2018-07-03T01:19:49.049Z,2.63
2018-07-03T01:22:17.919Z,5.40
2018-07-03T01:24:46.776Z,1.67
2018-07-03T01:27:15.596Z,2.30
2018-07-03T01:29:45.235Z,1.33
2018-07-03T01:32:14.154Z,3.00
2018-07-03T01:34:43.880Z,6.03
2018-07-03T01:37:12.828Z,1.67
2018-07-03T01:39:41.861Z,3.07
2018-07-03T01:42:10.765Z,4.53
2018-07-03T01:44:39.629Z,3.87
2018-07-03T01:47:08.466Z,3.70
2018-07-03T01:49:37.363Z,1.40
2018-07-03T01:52:06.269Z,1.73
2018-07-03T01:54:35.132Z,2.63
2018-07-03T01:57:04.004Z,3.40
2018-07-03T01:59:32.852Z,2.43
2018-07-03T02:02:01.768Z,2.33
2018-07-03T02:04:30.769Z,4.83
2018-07-03T02:06:59.652Z,5.37
2018-07-03T02:09:28.712Z,5.17
2018-07-03T02:11:57.583Z,3.33
2018-07-03T02:14:26.524Z,5.10
2018-07-03T02:16:56.298Z,2.97
2018-07-03T02:19:25.256Z,4.80
2018-07-03T02:21:54.095Z,4.13
2018-07-03T02:24:23.100Z,5.40
2018-07-03T02:26:52.136Z,4.57
2018-07-03T02:29:20.959Z,4.20
2018-07-03T02:31:49.818Z,6.13
2018-07-03T02:34:18.664Z,4.40
2018-07-03T02:36:47.537Z,5.20
2018-07-03T02:39:17.231Z,6.27
2018-07-03T02:41:46.272Z,3.47
2018-07-03T02:44:15.205Z,2.60
2018-07-03T02:46:44.948Z,4.23
2018-07-03T02:49:13.832Z,2.37
2018-07-03T02:51:42.674Z,4.67
2018-07-03T02:54:12.190Z,3.73
2018-07-03T02:56:41.000Z,4.40
2018-07-03T02:59:09.812Z,6.50
2018-07-03T03:01:38.678Z,3.50
2018-07-03T03:04:07.833Z,2.43
2018-07-03T03:06:36.756Z,2.07
2018-07-03T03:09:08.460Z,2.97
2018-07-03T03:11:37.480Z,3.87
2018-07-03T03:14:06.520Z,2.33
2018-07-03T03:16:35.366Z,6.43
2018-07-03T03:19:04.208Z,5.17
2018-07-03T03:21:33.049Z,2.70
2018-07-03T03:24:01.884Z,5.13
2018-07-03T03:26:30.723Z,7.23
2018-07-03T03:28:59.733Z,3.73
2018-07-03T03:31:28.625Z,2.87
2018-07-03T03:33:57.612Z,3.33
2018-07-03T03:36:26.451Z,4.47
2018-07-03T03:38:55.333Z,5.80
2018-07-03T03:41:24.240Z,3.03
2018-07-03T03:43:53.177Z,6.83
2018-07-03T03:46:22.008Z,3.27
2018-07-03T03:48:51.287Z,12.30
2018-07-03T03:51:20.187Z,6.37
2018-07-03T03:53:49.365Z,4.70
2018-07-03T03:56:18.208Z,3.03
2018-07-03T03:58:47.017Z,6.20
2018-07-03T04:01:15.991Z,8.40
2018-07-03T04:03:44.948Z,4.43
2018-07-03T04:06:13.827Z,3.07
2018-07-03T04:08:42.694Z,4.10
2018-07-03T04:11:11.535Z,3.00
2018-07-03T04:13:40.373Z,2.70
2018-07-03T04:16:09.168Z,6.70
2018-07-03T04:18:38.322Z,3.30
2018-07-03T04:21:08.185Z,5.40
2018-07-03T04:23:37.895Z,2.43
2018-07-03T04:26:06.828Z,4.90
2018-07-03T04:28:35.413Z,3.27
2018-07-03T04:31:04.445Z,4.90
2018-07-03T04:33:33.328Z,6.07
2018-07-03T04:36:02.201Z,7.13
2018-07-03T04:38:31.102Z,6.53
2018-07-03T04:40:59.926Z,3.60
2018-07-03T04:43:28.753Z,8.37
2018-07-03T04:45:57.655Z,6.67
2018-07-03T04:48:26.518Z,9.67
2018-07-03T04:50:55.328Z,6.30
2018-07-03T04:53:24.222Z,9.87
2018-07-03T04:55:53.013Z,18.00
2018-07-03T04:58:22.043Z,8.07
2018-07-03T05:00:50.905Z,11.50
2018-07-03T05:03:20.067Z,3.67
2018-07-03T05:05:48.905Z,4.27
2018-07-03T05:08:17.913Z,6.77
2018-07-03T05:10:46.749Z,3.57
2018-07-03T05:13:16.731Z,5.17
2018-07-03T05:15:45.560Z,5.83
2018-07-03T05:18:14.917Z,5.27
2018-07-03T05:20:43.731Z,5.27
2018-07-03T05:23:12.560Z,7.33
2018-07-03T05:25:41.549Z,6.17
2018-07-03T05:28:10.389Z,6.43
2018-07-03T05:30:40.172Z,6.73
2018-07-03T05:33:09.074Z,10.83
2018-07-03T05:35:37.950Z,11.67
2018-07-03T05:38:06.840Z,9.53
2018-07-03T05:40:35.648Z,7.33
2018-07-03T05:43:04.565Z,6.67
2018-07-03T05:45:33.502Z,27.23
2018-07-03T05:48:02.370Z,19.87
2018-07-03T05:50:31.258Z,15.87
2018-07-03T05:53:00.205Z,11.50
2018-07-03T05:55:29.104Z,14.10
2018-07-03T05:57:57.943Z,18.80
2018-07-03T06:00:26.903Z,10.07
2018-07-03T06:02:55.709Z,8.60
2018-07-03T06:05:24.520Z,18.20
2018-07-03T06:07:53.403Z,12.07
2018-07-03T06:10:22.403Z,9.30
2018-07-03T06:12:51.266Z,13.00
2018-07-03T06:15:20.286Z,3.33
2018-07-03T06:17:49.100Z,7.10
2018-07-03T06:20:17.986Z,6.33
2018-07-03T06:22:46.842Z,3.47
2018-07-03T06:25:15.623Z,5.23
2018-07-03T06:27:44.620Z,6.73
2018-07-03T06:30:13.604Z,4.30
2018-07-03T06:32:42.445Z,6.10
2018-07-03T06:35:11.401Z,8.47
2018-07-03T06:37:40.233Z,6.80
2018-07-03T06:40:09.161Z,5.07
2018-07-03T06:42:37.994Z,5.63
2018-07-03T06:45:07.405Z,7.93
2018-07-03T06:47:36.192Z,8.30
2018-07-03T06:50:05.629Z,12.10
2018-07-03T06:52:35.236Z,17.13
2018-07-03T06:55:04.235Z,9.57
2018-07-03T06:57:33.106Z,4.07
2018-07-03T07:00:01.986Z,9.83
2018-07-03T07:02:30.785Z,10.37
2018-07-03T07:04:59.812Z,6.07
2018-07-03T07:07:28.680Z,9.40
2018-07-03T07:09:57.556Z,6.17
2018-07-03T07:12:26.441Z,5.63
2018-07-03T07:14:55.314Z,5.60
2018-07-03T07:17:24.144Z,5.27
2018-07-03T07:19:52.986Z,4.60
2018-07-03T07:22:22.645Z,7.13
2018-07-03T07:24:51.600Z,4.30
2018-07-03T07:27:20.638Z,9.33
2018-07-03T07:29:49.556Z,6.87
2018-07-03T07:32:18.363Z,7.27
2018-07-03T07:34:47.259Z,3.43
2018-07-03T07:37:16.069Z,8.23
2018-07-03T07:39:45.118Z,8.03
2018-07-03T07:42:14.924Z,6.23
2018-07-03T07:44:44.064Z,8.73
2018-07-03T07:47:12.894Z,4.87
2018-07-03T07:49:41.747Z,6.63
2018-07-03T07:52:10.571Z,4.57
2018-07-03T07:54:39.481Z,6.73
2018-07-03T07:57:08.833Z,6.33
2018-07-03T07:59:37.709Z,8.50
2018-07-03T08:02:07.040Z,6.47
2018-07-03T08:04:35.916Z,6.93
2018-07-03T08:07:05.076Z,10.33
2018-07-03T08:09:33.903Z,5.97
2018-07-03T08:12:02.736Z,6.23
2018-07-03T08:14:31.778Z,9.00
2018-07-03T08:17:00.606Z,3.00
2018-07-03T08:19:29.472Z,5.63
2018-07-03T08:21:58.296Z,5.70
2018-07-03T08:24:27.241Z,3.90
2018-07-03T08:26:56.095Z,8.63
2018-07-03T08:29:24.760Z,8.30
2018-07-03T08:31:53.484Z,8.87
2018-07-03T08:34:21.984Z,6.03
2018-07-03T08:36:50.476Z,7.47
2018-07-03T08:39:18.952Z,19.50
2018-07-03T08:41:47.561Z,36.70
2018-07-03T08:44:16.271Z,48.43
2018-07-03T08:46:44.739Z,18.53
2018-07-03T08:49:13.189Z,20.37
2018-07-03T08:51:41.721Z,27.30
2018-07-03T08:54:10.102Z,13.23
2018-07-03T08:56:38.561Z,11.13
2018-07-03T08:59:07.020Z,9.53
2018-07-03T09:01:35.483Z,15.87
2018-07-03T09:04:03.928Z,15.07
2018-07-03T09:06:32.415Z,11.17
2018-07-03T09:09:01.257Z,8.27
2018-07-03T09:11:29.711Z,8.33
2018-07-03T09:13:58.176Z,6.77
2018-07-03T09:16:26.647Z,6.10
2018-07-03T09:18:55.365Z,7.58
2018-07-03T09:21:23.799Z,8.05
2018-07-03T09:23:52.294Z,8.05
2018-07-03T09:26:20.824Z,7.67
2018-07-03T09:28:49.267Z,3.33
2018-07-03T09:31:17.788Z,10.20
2018-07-03T09:33:46.223Z,5.53
2018-07-03T09:36:14.677Z,7.92
2018-07-03T09:38:43.124Z,3.20
2018-07-03T09:41:11.583Z,11.18
2018-07-03T09:43:40.020Z,4.10
2018-07-03T09:46:08.533Z,4.70
2018-07-03T09:48:36.967Z,4.72
2018-07-03T09:51:05.499Z,5.25
2018-07-03T09:53:33.952Z,6.05
2018-07-03T09:56:02.442Z,3.92
2018-07-03T09:58:30.881Z,1.80
2018-07-03T10:01:02.721Z,4.53
2018-07-03T10:03:31.323Z,7.03
2018-07-03T10:05:59.810Z,5.50
2018-07-03T10:08:29.248Z,9.40
2018-07-03T10:10:58.505Z,7.08
2018-07-03T10:13:27.032Z,6.33
2018-07-03T10:15:55.523Z,6.87
2018-07-03T10:18:24.096Z,4.70
2018-07-03T10:20:52.772Z,7.00
2018-07-03T10:23:21.210Z,8.10
2018-07-03T10:25:49.751Z,5.35
2018-07-03T10:28:18.200Z,3.02
2018-07-03T10:30:46.701Z,3.10
2018-07-03T10:33:15.172Z,2.27
2018-07-03T10:35:43.560Z,5.62
2018-07-03T10:38:12.029Z,5.10
2018-07-03T10:40:40.588Z,6.25
2018-07-03T10:43:09.023Z,3.30
2018-07-03T10:45:37.701Z,2.65
2018-07-03T10:48:06.392Z,111.68
2018-07-03T10:50:35.274Z,150.47
2018-07-03T10:53:03.793Z,109.65
2018-07-03T10:55:32.476Z,49.33
2018-07-03T10:58:01.028Z,116.28
2018-07-03T11:00:29.599Z,64.35
2018-07-03T11:02:58.135Z,45.63
2018-07-03T11:05:26.775Z,38.73
2018-07-03T11:07:55.263Z,21.73
2018-07-03T11:10:23.810Z,11.33
2018-07-03T11:12:52.319Z,15.68
2018-07-03T11:15:20.776Z,9.78
2018-07-03T11:17:49.225Z,3.80
2018-07-03T11:20:17.698Z,4.92
2018-07-03T11:22:46.132Z,4.65
2018-07-03T11:25:14.554Z,6.42
2018-07-03T11:27:45.809Z,7.55
2018-07-03T11:32:50.042Z,5.22
2018-07-03T11:35:18.533Z,4.35
2018-07-03T11:37:47.444Z,3.10
2018-07-03T11:40:16.012Z,3.62
2018-07-03T11:42:44.492Z,3.87
2018-07-03T11:45:13.048Z,5.37
2018-07-03T11:47:41.507Z,3.92
2018-07-03T11:50:10.050Z,2.17
2018-07-03T11:52:39.056Z,2.35
2018-07-03T11:55:07.604Z,4.85
2018-07-03T11:57:36.145Z,6.72
2018-07-03T12:00:05.151Z,8.20
2018-07-03T12:02:33.681Z,8.55
2018-07-03T12:05:02.120Z,5.03
2018-07-03T12:07:30.568Z,5.47
2018-07-03T12:09:59.076Z,2.87
2018-07-03T12:12:27.760Z,3.87
2018-07-03T12:14:56.181Z,3.83
2018-07-03T12:17:24.656Z,3.75
2018-07-03T12:19:53.257Z,1.98
2018-07-03T12:22:21.722Z,6.70
2018-07-03T12:24:50.311Z,4.80
2018-07-03T12:27:18.768Z,7.20
2018-07-03T12:29:47.391Z,6.15
2018-07-03T12:32:15.835Z,5.20
2018-07-03T12:34:44.294Z,8.63
2018-07-03T12:37:12.777Z,7.62
2018-07-03T12:39:41.342Z,7.50
2018-07-03T12:42:09.877Z,11.63
2018-07-03T12:44:38.447Z,4.70
2018-07-03T12:47:06.881Z,2.70
2018-07-03T12:49:35.440Z,5.47
2018-07-03T12:52:03.936Z,5.75
2018-07-03T12:54:32.427Z,3.15
2018-07-03T12:57:00.920Z,4.53
2018-07-03T12:59:29.479Z,2.87
2018-07-03T13:01:57.898Z,5.90
2018-07-03T13:04:26.565Z,3.50
2018-07-03T13:06:54.965Z,2.90
2018-07-03T13:09:23.492Z,17.27
2018-07-03T13:11:52.288Z,73.20
2018-07-03T13:14:20.850Z,67.05
2018-07-03T13:16:49.291Z,83.92
2018-07-03T13:19:17.848Z,146.90
2018-07-03T13:21:46.968Z,133.50
2018-07-03T13:24:15.436Z,35.08
2018-07-03T13:26:43.912Z,97.37
2018-07-03T13:29:12.380Z,44.10
2018-07-03T13:31:40.848Z,22.80
2018-07-03T13:34:09.304Z,88.37
2018-07-03T13:36:37.759Z,50.12
2018-07-03T13:39:07.397Z,35.20
2018-07-03T13:41:35.951Z,35.10
2018-07-03T13:44:04.471Z,38.02
2018-07-03T13:46:33.005Z,19.40
2018-07-03T13:49:01.596Z,12.10
2018-07-03T13:51:30.276Z,5.12
2018-07-03T13:53:59.045Z,8.08
2018-07-03T13:56:27.883Z,3.77
2018-07-03T13:58:56.723Z,7.33
2018-07-03T14:01:25.729Z,4.97
2018-07-03T14:03:54.545Z,4.15
2018-07-03T14:06:23.364Z,4.95
2018-07-03T14:08:52.533Z,5.03
2018-07-03T14:11:21.412Z,7.55
2018-07-03T14:13:50.242Z,10.78
2018-07-03T14:16:19.157Z,4.05
2018-07-03T14:18:48.171Z,3.95
2018-07-03T14:21:17.230Z,4.28
2018-07-03T14:23:46.114Z,4.78
2018-07-03T14:26:14.963Z,5.35
2018-07-03T14:28:43.756Z,6.30
2018-07-03T14:31:12.581Z,6.37
2018-07-03T14:33:41.388Z,4.87
2018-07-03T14:36:10.581Z,4.92
2018-07-03T14:38:39.663Z,4.78
2018-07-03T14:41:08.678Z,7.70
2018-07-03T14:43:37.959Z,4.97
2018-07-03T14:46:06.793Z,5.33
2018-07-03T14:48:35.667Z,4.25
2018-07-03T14:51:04.524Z,8.40
2018-07-03T14:53:33.426Z,5.67
2018-07-03T14:56:02.300Z,6.55
2018-07-03T14:58:31.200Z,168.90
2018-07-03T15:01:00.109Z,220.65
2018-07-03T15:03:28.659Z,48.25
2018-07-03T15:05:57.173Z,40.80
2018-07-03T15:08:25.631Z,129.25
2018-07-03T15:10:54.117Z,40.98
2018-07-03T15:13:22.576Z,26.80
2018-07-03T15:15:51.231Z,61.55
2018-07-03T15:18:19.682Z,43.50
2018-07-03T15:20:48.145Z,29.23
2018-07-03T15:23:16.615Z,30.30
2018-07-03T15:25:45.120Z,22.15
2018-07-03T15:28:13.730Z,14.93
2018-07-03T15:30:42.258Z,12.82
2018-07-03T15:33:10.706Z,10.70
2018-07-03T15:35:39.221Z,4.35
2018-07-03T15:38:07.639Z,11.20
2018-07-03T15:40:36.228Z,6.92
2018-07-03T15:43:04.664Z,4.53
2018-07-03T15:45:33.212Z,4.42
2018-07-03T15:48:02.537Z,3.15
2018-07-03T15:50:31.009Z,9.23
2018-07-03T15:52:59.455Z,5.72
2018-07-03T15:55:27.932Z,9.93
2018-07-03T15:57:56.414Z,4.75
2018-07-03T16:00:24.884Z,7.55
2018-07-03T16:02:59.135Z,5.37
2018-07-03T16:05:33.791Z,5.22
2018-07-03T16:09:15.177Z,4.47
2018-07-03T16:11:43.676Z,5.72
2018-07-03T16:14:12.535Z,7.42
2018-07-03T16:16:41.367Z,7.83
2018-07-03T16:19:15.479Z,6.12
2018-07-03T16:21:44.027Z,3.85
2018-07-03T16:24:12.781Z,4.25
2018-07-03T16:26:41.216Z,7.60
2018-07-03T16:29:11.199Z,2.30
2018-07-03T16:31:39.708Z,3.08
2018-07-03T16:34:08.312Z,5.45
2018-07-03T16:36:36.852Z,3.20
2018-07-03T16:39:07.524Z,3.80
2018-07-03T16:41:36.166Z,4.95
2018-07-03T16:44:04.615Z,6.83
2018-07-03T16:46:33.079Z,4.25
2018-07-03T16:49:01.652Z,5.08
2018-07-03T16:51:30.131Z,2.27
2018-07-03T16:53:58.584Z,5.20
2018-07-03T16:56:27.171Z,7.20
2018-07-03T16:58:55.615Z,11.38
2018-07-03T17:01:24.404Z,7.62
2018-07-03T17:03:53.373Z,3.02
2018-07-03T17:06:21.865Z,2.27
2018-07-03T17:08:50.347Z,6.45
2018-07-03T17:11:19.013Z,5.47
2018-07-03T17:13:47.521Z,6.35
2018-07-03T17:16:16.079Z,5.10
2018-07-03T17:18:50.450Z,8.28
2018-07-03T17:21:19.118Z,7.22
2018-07-03T17:23:47.897Z,7.37
2018-07-03T17:26:16.944Z,5.62
2018-07-03T17:28:45.467Z,5.95
2018-07-03T17:31:13.957Z,5.20
2018-07-03T17:33:42.518Z,4.65
2018-07-03T17:36:11.956Z,7.60
2018-07-03T17:38:40.531Z,8.95
2018-07-03T17:41:14.747Z,5.67
2018-07-03T17:43:58.689Z,8.43
2018-07-03T17:46:27.188Z,8.10
2018-07-03T17:48:55.747Z,6.95
2018-07-03T17:51:24.456Z,9.75
2018-07-03T17:53:52.935Z,4.22
2018-07-03T17:56:21.580Z,4.42
2018-07-03T17:58:50.200Z,6.92
2018-07-03T18:01:19.026Z,3.90
2018-07-03T18:03:47.556Z,14.28
2018-07-03T18:06:16.324Z,5.60
2018-07-03T18:08:45.056Z,4.10
2018-07-03T18:11:13.719Z,4.85
2018-07-03T18:13:42.270Z,9.23
2018-07-03T18:16:10.997Z,7.85
2018-07-03T18:18:39.628Z,11.40
2018-07-03T18:21:08.431Z,5.00
2018-07-03T18:23:36.959Z,10.95
2018-07-03T18:26:05.927Z,9.13
2018-07-03T18:28:34.388Z,7.00
2018-07-03T18:31:03.197Z,9.50
2018-07-03T18:33:31.856Z,10.78
2018-07-03T18:36:00.416Z,7.97
2018-07-03T18:38:28.950Z,3.70
2018-07-03T18:40:57.444Z,2.85
2018-07-03T18:43:25.983Z,6.37
2018-07-03T18:45:54.460Z,11.25
2018-07-03T18:48:22.976Z,3.22
2018-07-03T18:50:51.512Z,6.20
2018-07-03T18:53:20.017Z,5.12
2018-07-03T18:55:48.509Z,9.33
2018-07-03T18:58:17.014Z,8.33
2018-07-03T19:00:45.513Z,9.75
2018-07-03T19:03:14.148Z,13.85
2018-07-03T19:05:42.683Z,5.10
2018-07-03T19:08:11.774Z,6.35
2018-07-03T19:10:40.417Z,11.95
2018-07-03T19:13:09.039Z,9.55
2018-07-03T19:15:37.507Z,10.38
2018-07-03T19:18:07.766Z,5.10
2018-07-03T19:20:36.217Z,7.67
2018-07-03T19:23:04.744Z,6.15
2018-07-03T19:25:33.195Z,9.73
2018-07-03T19:28:02.179Z,10.85
2018-07-03T19:30:30.508Z,8.20
2018-07-03T19:32:58.992Z,5.78
2018-07-03T19:35:27.920Z,7.35
2018-07-03T19:37:56.600Z,7.12
2018-07-03T19:40:25.100Z,8.28
2018-07-03T19:43:33.944Z,16.27
2018-07-03T19:46:02.851Z,9.80
2018-07-03T19:48:31.347Z,8.18
2018-07-03T19:50:59.895Z,6.05
2018-07-03T19:53:28.787Z,6.78
2018-07-03T19:55:58.172Z,9.03
2018-07-03T19:58:26.649Z,8.33
2018-07-03T20:00:56.162Z,7.90
2018-07-03T20:03:24.667Z,11.48
2018-07-03T20:05:53.142Z,9.90
2018-07-03T20:08:21.667Z,11.60
2018-07-03T20:10:50.226Z,12.40
2018-07-03T20:13:19.176Z,7.03
2018-07-03T20:15:47.677Z,5.58
2018-07-03T20:18:16.574Z,11.93
2018-07-03T20:20:45.026Z,6.67
2018-07-03T20:23:13.551Z,8.35
2018-07-03T20:25:42.413Z,5.80
2018-07-03T20:28:10.948Z,7.60
2018-07-03T20:30:39.507Z,8.98
2018-07-03T20:33:08.034Z,10.08
2018-07-03T20:35:36.548Z,6.87
2018-07-03T20:38:06.263Z,16.57
2018-07-03T20:41:06.992Z,6.28
2018-07-03T20:43:36.888Z,5.58
2018-07-03T20:46:05.743Z,4.75
2018-07-03T20:48:34.360Z,6.55
2018-07-03T20:51:02.857Z,4.90
2018-07-03T20:53:31.595Z,7.35
2018-07-03T20:56:00.076Z,4.92
2018-07-03T20:58:28.843Z,3.62
2018-07-03T21:00:57.864Z,3.58
2018-07-03T21:03:26.472Z,4.28
2018-07-03T21:05:55.234Z,4.78
2018-07-03T21:08:23.742Z,3.52
2018-07-03T21:10:52.267Z,9.15
2018-07-03T21:13:20.794Z,15.63
2018-07-03T21:15:49.204Z,9.78
2018-07-03T21:18:17.839Z,20.35
2018-07-03T21:20:46.304Z,64.90
2018-07-03T21:23:14.762Z,78.28
2018-07-03T21:25:43.244Z,77.78
2018-07-03T21:28:11.783Z,72.58
2018-07-03T21:30:40.284Z,162.97
2018-07-03T21:33:08.810Z,164.57
2018-07-03T21:35:37.312Z,102.20
2018-07-03T21:38:05.771Z,82.50
2018-07-03T21:40:34.322Z,52.90
2018-07-03T21:43:02.831Z,38.00
2018-07-03T21:45:31.296Z,36.03
2018-07-03T21:47:59.848Z,27.90
2018-07-03T21:50:28.255Z,17.98
2018-07-03T21:52:56.875Z,16.70
2018-07-03T21:55:25.402Z,17.10
2018-07-03T21:57:53.872Z,11.18
2018-07-03T22:00:30.475Z,11.80
2018-07-03T22:02:58.897Z,12.88
2018-07-03T22:05:27.333Z,9.20
2018-07-03T22:07:55.779Z,8.45
2018-07-03T22:10:24.245Z,8.50
2018-07-03T22:12:52.846Z,9.45
2018-07-03T22:15:21.290Z,16.32
2018-07-03T22:17:49.997Z,8.80
2018-07-03T22:20:18.480Z,8.68
2018-07-03T22:22:47.016Z,15.53
2018-07-03T22:25:15.503Z,12.75
2018-07-03T22:27:43.958Z,8.48
2018-07-03T22:30:12.557Z,6.65
2018-07-03T22:32:41.348Z,10.63
2018-07-03T22:35:09.873Z,8.40
2018-07-03T22:37:38.383Z,8.93
2018-07-03T22:40:06.928Z,10.15
2018-07-03T22:42:35.404Z,9.18
2018-07-03T22:45:03.900Z,12.95
2018-07-03T22:47:32.377Z,5.15
2018-07-03T22:50:01.035Z,26.10
2018-07-03T22:52:29.499Z,133.20
2018-07-03T22:54:58.624Z,90.92
2018-07-03T22:57:27.194Z,71.90
2018-07-03T22:59:55.720Z,52.45
2018-07-03T23:02:24.164Z,41.58
2018-07-03T23:04:52.656Z,24.20
2018-07-03T23:07:21.099Z,23.95
2018-07-03T23:09:49.673Z,67.55
2018-07-03T23:12:19.523Z,26.52
2018-07-03T23:14:50.220Z,33.70
2018-07-03T23:17:18.640Z,21.77
2018-07-03T23:19:47.900Z,22.02
2018-07-03T23:22:16.441Z,19.32
2018-07-03T23:24:45.073Z,19.27
2018-07-03T23:27:14.667Z,12.90
2018-07-03T23:29:43.307Z,13.72
2018-07-03T23:32:12.145Z,10.65
2018-07-03T23:34:41.145Z,9.68
2018-07-03T23:37:10.159Z,8.63
2018-07-03T23:39:38.611Z,9.05
2018-07-03T23:42:07.096Z,9.45
2018-07-03T23:44:35.515Z,8.05
2018-07-03T23:47:09.536Z,9.20
2018-07-03T23:49:43.440Z,9.58
2018-07-03T23:52:17.392Z,7.50
2018-07-03T23:54:51.620Z,9.38
2018-07-03T23:57:25.847Z,8.07
2018-07-03T23:59:59.898Z,8.47
